• Join FlightAware (Why Join?)
  • Login
  • US Flag 
01:56AM EDT


 

Airport Tracker/Info


-or-


 

Live Flight TrackerFlight Track Log ✈ N700QA ✈ 21-Jul-2013 ✈ KLAX - KLAS

Flight Track Log - Related Links

Times and Time Zones

All times are in EDT time to prevent confusion due to time zone crossing. See the N700QA flight status page for this flight to view local times or setup timezone preferences in your user account.

Time Position Orientation Groundspeed Altitude Reporting Facility
EDT Latitude Longitude Course Direction KTS MPH feet Rate Location/Type
02:18PM 33.9333 -118.4500 246° West 187 215 2,100  Level Southern California TRACON
02:19PM 33.9047 -118.5275 246° West 232 267 4,500 2,220 Climbing Los Angeles Center
02:20PM 33.8472 -118.5517 199° South 249 287 7,000 2,400 Climbing Los Angeles Center
02:21PM 33.8242 -118.4778 111° Southeast 246 283 9,500 2,160 Climbing Los Angeles Center
02:22PM 33.8836 -118.4489 22° Northeast 271 312 11,500 2,040 Climbing Los Angeles Center
02:23PM 33.9494 -118.4228 18° North 256 295 13,800 1,980 Climbing Los Angeles Center
02:24PM 33.9814 -118.3494 62° Northeast 246 283 15,700 1,740 Climbing Los Angeles Center
02:25PM 34.0342 -118.2619 54° Northeast 266 306 17,500 1,380 Climbing Los Angeles Center
02:26PM 34.0758 -118.1839 57° Northeast 274 315 18,600 960 Climbing Los Angeles Center
02:27PM 34.1228 -118.1017 55° Northeast 293 337 19,600 960 Climbing Los Angeles Center
02:28PM 34.1714 -118.0172 55° Northeast 303 349 20,600 840 Climbing Los Angeles Center
02:30PM 34.2186 -117.9308 57° Northeast 307 353 21,400 840 Climbing Los Angeles Center
02:31PM 34.2672 -117.8444 56° Northeast 310 357 22,400 720 Climbing Los Angeles Center
02:32PM 34.3175 -117.7561 55° Northeast 317 365 23,000 300 Climbing Los Angeles Center
02:33PM 34.3828 -117.6411 55° Northeast 342 394 23,100  Climbing Los Angeles Center
02:34PM 34.4317 -117.5525 56° Northeast 366 421 23,100  Level Los Angeles Center
02:35PM 34.4978 -117.4308 57° Northeast 363 418 23,100  Level Los Angeles Center
02:36PM 34.5531 -117.3308 56° Northeast 360 414 23,100 -60 Level Los Angeles Center
02:37PM 34.6081 -117.2308 56° Northeast 359 413 23,000  Descending Los Angeles Center
02:38PM 34.6631 -117.1317 56° Northeast 358 412 23,100  Climbing Los Angeles Center
02:39PM 34.7175 -117.0308 57° Northeast 358 412 23,000 -60 Descending Los Angeles Center
02:40PM 34.7836 -116.9108 56° Northeast 356 410 23,000  Level Los Angeles Center
02:41PM 34.8381 -116.8092 57° Northeast 360 414 23,100  Climbing Los Angeles Center
02:42PM 34.8928 -116.7081 57° Northeast 359 413 23,000 -60 Descending Los Angeles Center
02:43PM 34.9478 -116.6089 56° Northeast 356 410 23,000  Level Los Angeles Center
02:44PM 35.0108 -116.5197 49° Northeast 350 403 23,000  Level Los Angeles Center
02:45PM 35.0925 -116.4178 46° Northeast 350 403 23,000  Level Los Angeles Center
02:46PM 35.1603 -116.3311 46° Northeast 354 407 23,000  Level Los Angeles Center
02:47PM 35.2311 -116.2478 44° Northeast 354 407 23,000 -240 Level Los Angeles Center
02:48PM 35.2978 -116.1617 46° Northeast 352 405 22,600 -1,080 Descending Los Angeles Center
02:49PM 35.3619 -116.0781 47° Northeast 342 394 20,800 -2,100 Descending Los Angeles Center
02:50PM 35.4422 -115.9767 46° Northeast 345 397 18,300 -2,280 Descending Los Angeles Center
02:51PM 35.5081 -115.8953 45° Northeast 341 392 16,100 -2,100 Descending Los Angeles Center
02:52PM 35.5800 -115.8114 43° Northeast 329 379 14,000 -1,440 Descending Los Angeles Center
02:53PM 35.6156 -115.7339 61° Northeast 314 361 13,200 -480 Descending Los Angeles Center
02:54PM 35.6139 -115.6472 91° East 231 266 13,100 -360 Descending Los Angeles Center
02:55PM 35.6119 -115.5769 92° East 239 275 12,500 -900 Descending Los Angeles Center
02:56PM 35.6342 -115.4922 72° East 241 277 11,300 -1,080 Descending Los Angeles Center
02:58PM 35.7011 -115.4606 21° North 243 280 10,300 -900 Descending Los Angeles Center
02:58PM 35.7539 -115.4333 23° Northeast 237 273 9,500 -840 Descending Los Angeles Center
03:00PM 35.8119 -115.4042 22° Northeast 231 266 8,700 -720 Descending Los Angeles Center
03:00PM 35.8711 -115.3789 19° North 225 259 8,100 -780 Descending Los Angeles Center
03:02PM 35.9433 -115.3489 19° North 228 262 7,100 -1,020 Descending Los Angeles Center
03:03PM 35.9936 -115.3256 21° North 205 236 6,100 -1,140 Descending Los Angeles Center
03:04PM 36.0386 -115.2842 37° Northeast 191 220 4,900 -1,140 Descending Los Angeles Center
03:05PM 36.0639 -115.2414 54° Northeast 169 194 3,800 -1,140 Descending Los Angeles Center
03:06PM 36.0742 -115.1794 78° East 157 181 2,600 -1,080 Descending Los Angeles Center
03:08PM 36.0801 -115.1523 112° Southeast  Level Estimated